createdAt,value
2023-03-23T00:00:37.472Z,25.85
2023-03-23T00:10:40.316Z,21.77
2023-03-23T00:20:50.265Z,26.25
2023-03-23T00:30:59.227Z,27.77
2023-03-23T00:41:04.302Z,28.23
2023-03-23T00:51:12.903Z,28.95
2023-03-23T01:01:15.122Z,28.67
2023-03-23T01:11:23.448Z,28.88
2023-03-23T01:21:28.027Z,25.42
2023-03-23T01:31:30.214Z,26.33
2023-03-23T01:41:36.087Z,24.10
2023-03-23T01:51:48.085Z,24.88
2023-03-23T02:01:53.690Z,26.95
2023-03-23T02:11:56.587Z,24.65
2023-03-23T02:22:07.914Z,21.02
2023-03-23T02:32:42.479Z,21.30
2023-03-23T02:42:48.944Z,21.50
2023-03-23T02:52:52.063Z,20.40
2023-03-23T03:02:56.125Z,21.77
2023-03-23T03:13:26.577Z,18.98
2023-03-23T03:23:29.376Z,20.25
2023-03-23T03:33:37.807Z,19.30
2023-03-23T03:43:42.828Z,21.58
2023-03-23T03:53:48.892Z,19.38
2023-03-23T04:03:52.886Z,18.75
2023-03-23T04:14:06.341Z,18.13
2023-03-23T04:24:23.298Z,19.27
2023-03-23T04:34:49.968Z,21.20
2023-03-23T04:44:56.796Z,20.02
2023-03-23T04:55:07.091Z,16.10
2023-03-23T05:05:13.232Z,20.85
2023-03-23T05:15:18.834Z,15.77
2023-03-23T05:25:25.134Z,19.98
2023-03-23T05:35:36.111Z,16.17
2023-03-23T05:45:40.846Z,23.52
2023-03-23T05:55:46.426Z,18.13
2023-03-23T06:06:00.106Z,17.50
2023-03-23T06:16:16.978Z,18.23
2023-03-23T06:26:37.763Z,15.60
2023-03-23T06:36:50.505Z,17.98
2023-03-23T06:47:05.449Z,18.77
2023-03-23T06:57:16.958Z,19.40
2023-03-23T07:07:22.455Z,17.88
2023-03-23T07:17:34.640Z,15.40
2023-03-23T07:27:47.016Z,16.65
2023-03-23T07:37:56.380Z,13.55
2023-03-23T07:48:05.290Z,16.05
2023-03-23T07:58:20.364Z,13.45
2023-03-23T08:08:28.478Z,13.18
2023-03-23T08:18:58.104Z,11.68
2023-03-23T08:29:31.948Z,9.00
2023-03-23T08:39:58.497Z,9.75
2023-03-23T08:50:16.189Z,8.88
2023-03-23T09:00:44.083Z,8.32
2023-03-23T09:11:13.389Z,7.65
2023-03-23T09:21:18.919Z,11.18
2023-03-23T09:31:23.822Z,10.65
2023-03-23T09:41:50.878Z,6.10
2023-03-23T09:52:24.126Z,7.15
2023-03-23T10:02:42.400Z,6.50
2023-03-23T10:12:54.943Z,8.30
2023-03-23T10:23:22.641Z,5.97
2023-03-23T10:33:44.205Z,6.00
2023-03-23T10:43:56.032Z,5.97
2023-03-23T10:54:05.560Z,7.10
2023-03-23T11:04:14.287Z,5.38
2023-03-23T11:14:20.926Z,6.18
2023-03-23T11:24:29.194Z,5.80
2023-03-23T11:34:36.764Z,2.63
2023-03-23T11:44:48.399Z,4.60
2023-03-23T11:55:13.475Z,5.38
2023-03-23T12:05:45.390Z,3.28
2023-03-23T12:15:55.505Z,1.98
2023-03-23T12:26:08.100Z,4.40
2023-03-23T12:36:52.278Z,3.63
2023-03-23T12:47:32.166Z,4.20
2023-03-23T12:57:46.446Z,5.20
2023-03-23T13:08:06.105Z,4.85
2023-03-23T13:18:40.873Z,5.05
2023-03-23T13:29:09.984Z,6.82
2023-03-23T13:39:25.531Z,3.88
2023-03-23T13:49:34.268Z,7.13
2023-03-23T13:59:50.207Z,6.70
2023-03-23T14:09:57.312Z,4.57
2023-03-23T14:20:02.138Z,4.78
2023-03-23T14:30:18.099Z,8.85
2023-03-23T14:40:27.087Z,5.95
2023-03-23T14:50:41.790Z,6.18
2023-03-23T15:00:57.369Z,6.28
2023-03-23T15:11:05.062Z,5.15
2023-03-23T15:21:25.371Z,8.10
2023-03-23T15:31:32.233Z,5.68
2023-03-23T15:41:35.024Z,6.72
2023-03-23T15:51:39.425Z,7.10
2023-03-23T16:01:48.720Z,6.90
2023-03-23T16:11:54.022Z,6.55
2023-03-23T16:21:56.370Z,6.25
2023-03-23T16:32:00.891Z,6.20
2023-03-23T16:42:03.334Z,7.55
2023-03-23T16:52:06.883Z,6.65
2023-03-23T17:02:14.762Z,6.15
2023-03-23T17:12:17.256Z,6.95
2023-03-23T17:22:19.696Z,6.28
2023-03-23T17:32:26.608Z,7.13
2023-03-23T17:42:32.114Z,6.40
2023-03-23T17:52:36.794Z,7.68
2023-03-23T18:02:41.815Z,6.60
2023-03-23T18:12:44.933Z,6.75
2023-03-23T18:22:52.085Z,8.30
2023-03-23T18:32:58.962Z,7.63
2023-03-23T18:43:03.175Z,9.68
2023-03-23T18:53:08.277Z,8.27
2023-03-23T19:03:14.069Z,9.07
2023-03-23T19:13:19.662Z,11.25
2023-03-23T19:23:25.337Z,10.45
2023-03-23T19:33:29.567Z,7.93
2023-03-23T19:43:37.703Z,6.60
2023-03-23T19:53:47.421Z,5.55
2023-03-23T20:03:55.439Z,6.30
2023-03-23T20:14:04.758Z,3.00
2023-03-23T20:24:10.178Z,4.00
2023-03-23T20:34:28.925Z,3.30
2023-03-23T20:44:35.213Z,3.40
2023-03-23T20:54:38.233Z,4.22
2023-03-23T21:04:45.491Z,4.10
2023-03-23T21:14:56.209Z,5.05
2023-03-23T21:25:00.662Z,4.57
2023-03-23T21:35:03.798Z,5.25
2023-03-23T21:45:06.808Z,4.78
2023-03-23T21:55:12.899Z,4.47
2023-03-23T22:05:21.404Z,8.45
2023-03-23T22:15:28.285Z,5.07
2023-03-23T22:25:31.104Z,6.57
2023-03-23T22:35:43.407Z,9.35
2023-03-23T22:45:53.040Z,9.20
2023-03-23T22:55:57.461Z,8.50
2023-03-23T23:06:05.303Z,8.77
2023-03-23T23:16:13.595Z,8.35
2023-03-23T23:26:17.513Z,6.38
2023-03-23T23:36:28.749Z,6.32
2023-03-23T23:46:31.673Z,6.22
2023-03-23T23:56:34.379Z,5.97
